Latest Weather Observations for Ben Nevis

IDV60801

Issued at 7:05 pm EDT Monday 20 October 2014 (issued every 30 minutes, with the page automatically refreshed every 10 minutes)

About weather observations | Map of weather stations | Latest weather observations for VIC | Other Formats
Station Details ID: 079101 Name: BEN NEVIS Lat: -37.23 Lon: 143.20 Height: 875.0 m
Data from the previous 72 hours. | See also: Recent months at Ben Nevis
Date/Time
EDT
Temp
°C
App
Temp
°C
Dew
Point
Rel
Hum
%
Delta-T
°C
Wind Press
QNH
hPa
Press
MSL
hPa
Rain
since 9 am
mm
Dir
 
Spd
km/h
Gust
km/h
Spd
kts
Gust
kts
20/07:00pm 11.1 5.2 1.9 53 4.1 ESE 22 30 12 16 - - 0.0
20/06:30pm 12.3 7.8 1.9 49 4.7 ESE 15 22 8 12 - - 0.0
20/06:00pm 13.5 9.3 1.8 45 5.3 ESE 13 20 7 11 - - 0.0
20/05:30pm 14.0 9.1 2.0 44 5.5 ESE 17 28 9 15 - - 0.0
20/05:00pm 14.9 10.7 1.4 40 6.2 SE 13 20 7 11 - - 0.0
20/04:30pm 15.0 10.7 0.8 38 6.4 ESE 13 20 7 11 - - 0.0
20/04:00pm 15.3 11.0 1.1 38 6.5 ESE 13 22 7 12 - - 0.0
20/03:30pm 15.5 11.5 0.5 36 6.8 SE 11 17 6 9 - - 0.0
20/03:00pm 15.8 12.0 1.5 38 6.6 SE 11 19 6 10 - - 0.0
20/02:30pm 14.8 10.9 1.0 39 6.3 SE 11 19 6 10 - - 0.0
20/02:00pm 14.2 10.2 0.5 39 6.1 ESE 11 17 6 9 - - 0.0
20/01:30pm 13.5 9.0 -0.2 39 6.0 SE 13 20 7 11 - - 0.0
20/01:00pm 12.9 8.0 -0.4 40 5.8 ESE 15 22 8 12 - - 0.0
20/12:30pm 13.3 9.5 1.6 45 5.3 SE 11 20 6 11 - - 0.0
20/12:00pm 11.8 7.7 0.0 44 5.1 ESE 11 19 6 10 - - 0.0
20/11:30am 12.0 8.3 2.2 51 4.5 ESE 11 19 6 10 - - 0.0
20/11:00am 11.9 8.7 3.2 55 4.0 ESE 9 19 5 10 - - 0.0
20/10:30am 11.0 7.5 1.3 51 4.3 ESE 9 17 5 9 - - 0.0
20/10:00am 9.7 5.7 0.6 53 3.9 ESE 11 20 6 11 - - 0.0
20/09:30am 8.4 4.3 2.2 65 2.7 E 13 20 7 11 - - 0.0
20/09:00am 7.1 1.8 1.8 69 2.3 ESE 19 28 10 15 - - 0.0
20/08:30am 7.1 0.6 0.1 61 2.9 ESE 24 33 13 18 - - 0.0
20/08:00am 5.3 -2.1 1.6 77 1.6 ESE 30 46 16 25 - - 0.0
20/07:30am 4.5 -4.7 1.5 81 1.3 ESE 39 54 21 29 - - 0.0
20/07:00am 4.1 -4.4 1.0 80 1.3 ESE 35 54 19 29 - - 0.0
20/06:56am 4.2 -4.3 0.9 79 1.4 ESE 35 54 19 29 - - 0.0
20/06:30am 4.1 -4.4 0.6 78 1.4 ESE 35 50 19 27 - - 0.0
20/06:00am 4.0 -3.8 2.0 87 0.8 ESE 32 46 17 25 - - 0.0
20/05:53am 4.1 -2.9 2.0 86 0.9 ESE 28 46 15 25 - - 0.0
20/05:30am 4.6 -2.0 2.3 85 1.0 SE 26 37 14 20 - - 0.0
20/05:00am 4.8 -0.4 2.7 86 0.9 SE 19 30 10 16 - - 0.0
20/04:30am 5.0 -0.7 2.7 85 1.0 SE 22 33 12 18 - - 0.0
20/04:00am 5.5 0.1 2.7 82 1.2 SSE 20 33 11 18 - - 0.0
20/03:30am 5.5 -0.4 3.7 88 0.8 SSE 24 33 13 18 - - 0.0
20/03:00am 5.9 1.3 3.6 85 1.0 SE 17 26 9 14 - - 0.0
20/02:30am 6.4 1.9 4.1 85 1.0 SSE 17 26 9 14 - - 0.0
20/02:00am 6.8 2.8 5.1 89 0.8 SSE 15 22 8 12 - - 0.0
20/01:30am 7.3 2.7 5.8 90 0.7 SSE 19 32 10 17 - - 0.0
20/01:00am 7.7 3.2 6.0 89 0.8 S 19 28 10 15 - - 0.0
20/12:30am 7.8 3.3 5.9 88 0.9 S 19 32 10 17 - - 0.0
20/12:00am 8.2 1.2 6.2 87 1.0 S 32 48 17 26 - - 0.0
 
Date/Time
EDT
Temp
°C
App
Temp
°C
Dew
Point
Rel
Hum
%
Delta-T
°C
Wind Press
QNH
hPa
Press
MSL
hPa
Rain
since 9 am
mm
Dir
 
Spd
km/h
Gust
km/h
Spd
kts
Gust
kts
19/11:30pm 8.0 3.1 6.9 93 0.5 S 22 39 12 21 - - 0.0
19/11:00pm 7.8 1.7 6.4 91 0.7 S 28 46 15 25 - - 0.0
19/10:51pm 7.8 1.6 6.1 89 0.8 SSW 28 46 15 25 - - 0.0
19/10:30pm 7.8 3.1 6.1 89 0.8 S 20 32 11 17 - - 0.0
19/10:00pm 8.8 3.3 5.9 82 1.4 S 24 37 13 20 - - 0.0
19/09:39pm 8.2 1.4 6.8 91 0.7 S 32 50 17 27 - - 0.0
19/09:30pm 8.4 3.7 6.2 86 1.1 S 20 30 11 16 - - 0.0
19/09:18pm 8.7 4.4 5.4 80 1.6 S 17 28 9 15 - - 0.0
19/09:02pm 8.7 0.0 7.5 92 0.6 SSW 43 61 23 33 - - 0.0
19/09:00pm 8.7 -0.2 7.6 93 0.5 SSW 44 61 24 33 - - 0.0
19/08:44pm 9.3 0.5 7.3 87 1.0 SSW 43 61 23 33 - - 0.0
19/08:30pm 11.1 3.5 7.6 79 1.8 SSW 37 50 20 27 - - 0.0
19/08:00pm 9.8 1.5 7.7 87 1.1 SSW 41 54 22 29 - - 0.0
19/07:44pm 9.1 3.0 8.3 95 0.4 S 30 52 16 28 - - 0.0
19/07:30pm 9.7 5.1 8.1 90 0.8 S 22 39 12 21 - - 0.0
19/07:00pm 11.1 8.8 9.0 87 1.1 SW 11 20 6 11 - - 0.0
19/06:36pm 10.7 4.2 9.0 89 0.9 SW 33 61 18 33 - - 0.0
19/06:30pm 11.3 5.1 9.2 87 1.1 SSW 32 46 17 25 - - 0.0
19/06:00pm 12.7 4.6 10.1 84 1.4 SSW 43 61 23 33 - - 0.0
19/05:48pm 13.8 7.2 10.0 78 2.1 SW 35 54 19 29 - - 0.0
19/05:30pm 15.0 7.7 10.2 73 2.6 SW 39 50 21 27 - - 0.0
19/05:25pm 16.0 9.4 9.9 67 3.3 SW 35 50 19 27 - - 0.0
19/05:00pm 21.1 15.5 10.0 49 6.3 WSW 30 41 16 22 - - 0.0
19/04:33pm 22.5 16.8 8.2 40 7.9 WSW 28 46 15 25 - - 0.0
19/04:30pm 22.3 16.5 8.1 40 7.8 WSW 28 39 15 21 - - 0.0
19/04:00pm 23.1 17.8 9.8 43 7.5 SW 28 43 15 23 - - 0.0
19/03:51pm 24.8 17.4 -0.4 19 12.0 W 28 46 15 25 - - 0.0
19/03:30pm 25.0 19.2 -1.7 17 12.5 W 19 41 10 22 - - 0.0
19/03:00pm 24.9 20.7 -1.0 18 12.2 ENE 11 30 6 16 - - 0.0
19/02:30pm 26.0 21.9 -0.1 18 12.6 NNW 11 20 6 11 - - 0.0
19/02:00pm 25.9 21.6 -1.8 16 13.0 N 11 32 6 17 - - 0.0
19/01:30pm 25.6 21.0 -1.2 17 12.7 NNW 13 30 7 16 - - 0.0
19/01:00pm 24.6 20.5 -0.5 19 11.9 NNE 11 26 6 14 - - 0.0
19/12:30pm 22.0 16.5 -2.0 20 10.9 N 17 32 9 17 - - 0.0
19/12:00pm 22.1 16.9 0.0 23 10.4 N 17 35 9 19 - - 0.0
19/11:30am 20.6 14.7 -0.7 24 9.8 N 20 32 11 17 - - 0.0
19/11:00am 21.0 15.4 -0.3 24 9.9 N 19 33 10 18 - - 0.0
19/10:30am 19.3 13.6 0.4 28 8.8 N 20 37 11 20 - - 0.0
19/10:00am 17.7 11.3 -1.5 27 8.5 N 22 35 12 19 - - 0.0
19/09:30am 16.9 9.6 -2.7 26 8.4 N 26 43 14 23 - - 0.0
19/09:00am 16.9 10.3 -3.2 25 8.5 N 22 37 12 20 - - 0.0
19/08:30am 16.2 9.1 -4.4 24 8.4 N 24 43 13 23 - - 0.0
19/08:00am 15.9 9.5 -4.6 24 8.3 N 20 35 11 19 - - 0.0
19/07:30am 16.0 9.2 -5.1 23 8.5 N 22 37 12 20 - - 0.0
19/07:00am 15.6 7.9 -6.6 21 8.6 N 26 48 14 26 - - 0.0
19/06:39am 15.7 7.6 -6.5 21 8.6 N 28 48 15 26 - - 0.0
19/06:30am 15.7 8.0 -6.5 21 8.6 N 26 48 14 26 - - 0.0
19/06:19am 16.1 8.0 -6.8 20 8.9 N 28 46 15 25 - - 0.0
19/06:00am 15.9 8.2 -6.4 21 8.7 N 26 46 14 25 - - 0.0
19/05:30am 15.7 8.1 -5.9 22 8.5 N 26 50 14 27 - - 0.0
19/05:00am 15.8 8.2 -5.8 22 8.5 N 26 44 14 24 - - 0.0
19/04:30am 15.9 8.6 -5.8 22 8.6 N 24 41 13 22 - - 0.0
19/04:00am 15.8 8.7 -4.7 24 8.3 N 24 39 13 21 - - 0.0
19/03:30am 16.2 9.1 -4.4 24 8.4 N 24 48 13 26 - - 0.0
19/03:00am 16.0 8.9 -4.0 25 8.2 N 24 39 13 21 - - 0.0
19/02:30am 16.2 8.8 -3.8 25 8.3 N 26 43 14 23 - - 0.0
19/02:00am 16.4 9.0 -3.7 25 8.4 N 26 41 14 22 - - 0.0
19/01:32am 16.8 9.1 -3.3 25 8.5 N 28 48 15 26 - - 0.0
19/01:30am 16.8 9.1 -3.3 25 8.5 N 28 44 15 24 - - 0.0
19/01:00am 16.9 8.8 -3.2 25 8.5 N 30 50 16 27 - - 0.0
19/12:30am 17.2 8.7 -3.0 25 8.6 N 32 52 17 28 - - 0.0
19/12:01am 17.4 9.0 -2.8 25 8.7 N 32 50 17 27 - - 0.0
19/12:00am 17.5 8.9 -2.7 25 8.7 N 33 50 18 27 - - 0.0
 
Date/Time
EDT
Temp
°C
App
Temp
°C
Dew
Point
Rel
Hum
%
Delta-T
°C
Wind Press
QNH
hPa
Press
MSL
hPa
Rain
since 9 am
mm
Dir
 
Spd
km/h
Gust
km/h
Spd
kts
Gust
kts
18/11:30pm 17.6 9.2 -2.6 25 8.7 N 32 52 17 28 - - 0.0
18/11:00pm 17.2 9.2 -2.4 26 8.4 N 30 48 16 26 - - 0.0
18/10:30pm 17.4 9.5 -1.8 27 8.4 N 30 48 16 26 - - 0.0
18/10:13pm 17.4 9.8 -1.8 27 8.4 N 28 48 15 26 - - 0.0
18/10:00pm 17.4 9.5 -1.3 28 8.3 NNE 30 44 16 24 - - 0.0
18/09:30pm 17.4 9.9 -1.3 28 8.3 N 28 43 15 23 - - 0.0
18/09:04pm 17.8 10.3 -1.4 27 8.5 N 28 48 15 26 - - 0.0
18/09:00pm 17.9 10.4 -1.3 27 8.5 N 28 43 15 23 - - 0.0
18/08:30pm 18.4 11.2 -2.0 25 9.0 N 26 41 14 22 - - 0.0
18/08:00pm 18.4 12.3 -2.0 25 9.0 N 20 35 11 19 - - 0.0
18/07:30pm 18.3 12.9 -1.5 26 8.8 N 17 28 9 15 - - 0.0
18/07:00pm 18.6 13.2 -1.3 26 8.9 N 17 33 9 18 - - 0.0
18/06:30pm 18.8 13.4 -1.1 26 8.9 N 17 28 9 15 - - 0.0
18/06:00pm 19.7 14.7 -0.9 25 9.4 N 15 28 8 15 - - 0.0
18/05:30pm 19.5 14.2 -0.5 26 9.1 N 17 33 9 18 - - 0.0
18/05:00pm 20.5 15.3 -0.2 25 9.6 N 17 32 9 17 - - 0.0
18/04:30pm 19.6 13.8 -0.4 26 9.2 N 20 33 11 18 - - 0.0
18/04:00pm 20.6 14.6 -1.2 23 9.9 N 20 30 11 16 - - 0.0
18/03:30pm 20.3 15.1 0.2 26 9.4 N 17 30 9 16 - - 0.0
18/03:00pm 19.6 15.0 1.6 30 8.6 N 15 28 8 15 - - 0.0
18/02:30pm 20.2 15.8 2.5 31 8.6 N 15 26 8 14 - - 0.0
18/02:00pm 19.5 14.1 1.5 30 8.6 N 19 32 10 17 - - 0.0
18/01:30pm 18.7 13.8 2.1 33 7.9 N 17 30 9 16 - - 0.0
18/01:00pm 18.7 14.2 2.1 33 7.9 N 15 26 8 14 - - 0.0
18/12:30pm 19.9 16.1 4.0 35 8.0 N 13 24 7 13 - - 0.0
18/12:00pm 18.4 14.4 3.1 36 7.4 N 13 24 7 13 - - 0.0
18/11:30am 16.3 12.6 2.3 39 6.6 N 11 17 6 9 - - 0.0
18/11:00am 17.2 13.2 2.8 38 6.9 N 13 24 7 13 - - 0.0
18/10:30am 14.9 10.3 1.4 40 6.2 N 15 20 8 11 - - 0.0
18/10:00am 15.4 10.2 0.4 36 6.7 N 17 26 9 14 - - 0.0
18/09:30am 14.0 8.8 -0.1 38 6.2 N 17 28 9 15 - - 0.0
18/09:00am 13.5 7.8 -0.5 38 6.1 N 19 28 10 15 - - 0.0
18/08:30am 12.8 7.2 -0.1 41 5.6 N 19 26 10 14 - - 0.0
18/08:00am 11.5 5.9 0.0 45 5.0 N 19 30 10 16 - - 0.0
18/07:30am 10.9 5.7 -0.2 46 4.7 N 17 26 9 14 - - 0.0
18/07:00am 10.0 4.7 -0.5 48 4.4 N 17 28 9 15 - - 0.0
18/06:30am 9.7 4.4 -0.5 49 4.3 N 17 26 9 14 - - 0.0
18/06:00am 9.9 4.3 -0.3 49 4.3 N 19 28 10 15 - - 0.0
18/05:30am 9.9 4.3 -0.3 49 4.3 N 19 28 10 15 - - 0.0
18/05:00am 10.0 4.4 -0.2 49 4.3 N 19 33 10 18 - - 0.0
18/04:30am 10.6 5.3 -0.8 45 4.8 N 17 28 9 15 - - 0.0
18/04:00am 10.7 5.3 -1.0 44 4.9 N 17 26 9 14 - - 0.0
18/03:30am 10.8 5.5 -0.9 44 4.9 N 17 24 9 13 - - 0.0
18/03:00am 10.1 5.1 -1.0 46 4.6 N 15 30 8 16 - - 0.0
18/02:30am 10.3 5.3 -1.4 44 4.8 NNE 15 24 8 13 - - 0.0
18/02:00am 10.3 4.9 -1.4 44 4.8 N 17 26 9 14 - - 0.0
18/01:30am 10.3 5.0 -0.8 46 4.6 NNE 17 24 9 13 - - 0.0
18/01:00am 10.4 5.4 -1.0 45 4.7 N 15 22 8 12 - - 0.0
18/12:30am 9.6 5.0 -0.9 48 4.3 NNE 13 20 7 11 - - 0.0
18/12:00am 9.6 5.1 -0.3 50 4.2 NNE 13 20 7 11 - - 0.0
 
Date/Time
EDT
Temp
°C
App
Temp
°C
Dew
Point
Rel
Hum
%
Delta-T
°C
Wind Press
QNH
hPa
Press
MSL
hPa
Rain
since 9 am
mm
Dir
 
Spd
km/h
Gust
km/h
Spd
kts
Gust
kts
17/11:30pm 9.0 4.8 -0.6 51 4.0 NNE 11 17 6 9 - - 0.0
17/11:00pm 9.1 5.2 -1.6 47 4.3 N 9 13 5 7 - - 0.0
17/10:30pm 10.1 6.1 -1.9 43 4.9 N 9 11 5 6 - - 0.0
17/10:00pm 10.8 6.8 -2.2 40 5.3 N 9 13 5 7 - - 0.0
17/09:30pm 10.4 6.8 -2.3 41 5.1 NE 7 13 4 7 - - 0.0
17/09:00pm 10.7 7.3 -2.0 41 5.2 W 6 9 3 5 - - 0.0
17/08:30pm 10.9 7.9 -1.8 41 5.2 W 4 7 2 4 - - 0.0
17/08:00pm 10.6 7.1 -1.4 43 5.0 W 7 11 4 6 - - 0.0
17/07:30pm 12.1 8.9 -0.4 42 5.4 W 6 9 3 5 - - 0.0

Other Formats:

Comma delimited format used in spreadsheet applications
http://www.bom.gov.au/fwo/IDV60801/IDV60801.94835.axf

JavaScript Object Notation format (JSON) in row-major order
http://www.bom.gov.au/fwo/IDV60801/IDV60801.94835.json